sensor_id;sensor_type;location;lat;lon;timestamp;P1;durP1;ratioP1;P2;durP2;ratioP2
9418;SDS011;4748;50.802;7.132;2022-11-15T00:02:04;9.47;;;2.10;;
9418;SDS011;4748;50.802;7.132;2022-11-15T00:04:30;3.33;;;2.33;;
9418;SDS011;4748;50.802;7.132;2022-11-15T00:06:55;4.07;;;2.50;;
9418;SDS011;4748;50.802;7.132;2022-11-15T00:09:20;1.90;;;1.60;;
9418;SDS011;4748;50.802;7.132;2022-11-15T00:11:46;3.00;;;2.10;;
9418;SDS011;4748;50.802;7.132;2022-11-15T00:14:11;10.23;;;1.70;;
9418;SDS011;4748;50.802;7.132;2022-11-15T00:16:36;3.40;;;2.37;;
9418;SDS011;4748;50.802;7.132;2022-11-15T00:19:02;4.50;;;2.30;;
9418;SDS011;4748;50.802;7.132;2022-11-15T00:21:27;3.60;;;2.27;;
9418;SDS011;4748;50.802;7.132;2022-11-15T00:23:52;2.80;;;2.60;;
9418;SDS011;4748;50.802;7.132;2022-11-15T00:26:18;3.20;;;2.27;;
9418;SDS011;4748;50.802;7.132;2022-11-15T00:28:43;3.20;;;2.17;;
9418;SDS011;4748;50.802;7.132;2022-11-15T00:31:12;6.30;;;1.83;;
9418;SDS011;4748;50.802;7.132;2022-11-15T00:33:39;2.90;;;2.57;;
9418;SDS011;4748;50.802;7.132;2022-11-15T00:36:05;8.17;;;2.90;;
9418;SDS011;4748;50.802;7.132;2022-11-15T00:38:34;2.90;;;2.17;;
9418;SDS011;4748;50.802;7.132;2022-11-15T00:41:00;4.73;;;2.73;;
9418;SDS011;4748;50.802;7.132;2022-11-15T00:43:26;5.67;;;2.83;;
9418;SDS011;4748;50.802;7.132;2022-11-15T00:45:52;5.13;;;2.73;;
9418;SDS011;4748;50.802;7.132;2022-11-15T00:48:17;5.10;;;2.83;;
9418;SDS011;4748;50.802;7.132;2022-11-15T00:50:43;8.97;;;3.27;;
9418;SDS011;4748;50.802;7.132;2022-11-15T00:53:08;3.53;;;2.40;;
9418;SDS011;4748;50.802;7.132;2022-11-15T00:55:33;6.53;;;2.37;;
9418;SDS011;4748;50.802;7.132;2022-11-15T00:57:59;3.83;;;2.23;;
9418;SDS011;4748;50.802;7.132;2022-11-15T01:00:24;3.90;;;2.20;;
9418;SDS011;4748;50.802;7.132;2022-11-15T01:02:49;2.77;;;2.13;;
9418;SDS011;4748;50.802;7.132;2022-11-15T01:05:15;6.17;;;3.23;;
9418;SDS011;4748;50.802;7.132;2022-11-15T01:07:41;2.70;;;2.13;;
9418;SDS011;4748;50.802;7.132;2022-11-15T01:10:06;5.50;;;2.67;;
9418;SDS011;4748;50.802;7.132;2022-11-15T01:12:32;5.10;;;2.90;;
9418;SDS011;4748;50.802;7.132;2022-11-15T01:14:57;2.53;;;2.37;;
9418;SDS011;4748;50.802;7.132;2022-11-15T01:17:23;4.17;;;2.63;;
9418;SDS011;4748;50.802;7.132;2022-11-15T01:19:49;2.97;;;2.77;;
9418;SDS011;4748;50.802;7.132;2022-11-15T01:22:14;5.80;;;2.80;;
9418;SDS011;4748;50.802;7.132;2022-11-15T01:24:39;4.33;;;2.77;;
9418;SDS011;4748;50.802;7.132;2022-11-15T01:27:05;5.00;;;2.77;;
9418;SDS011;4748;50.802;7.132;2022-11-15T01:29:30;6.20;;;2.47;;
9418;SDS011;4748;50.802;7.132;2022-11-15T01:31:55;7.53;;;2.60;;
9418;SDS011;4748;50.802;7.132;2022-11-15T01:34:21;2.37;;;2.23;;
9418;SDS011;4748;50.802;7.132;2022-11-15T01:36:46;6.23;;;3.20;;
9418;SDS011;4748;50.802;7.132;2022-11-15T01:39:11;3.47;;;2.20;;
9418;SDS011;4748;50.802;7.132;2022-11-15T01:41:37;3.47;;;2.27;;
9418;SDS011;4748;50.802;7.132;2022-11-15T01:47:15;2.27;;;1.97;;
9418;SDS011;4748;50.802;7.132;2022-11-15T01:49:46;2.23;;;2.03;;
9418;SDS011;4748;50.802;7.132;2022-11-15T01:52:17;4.80;;;2.57;;
9418;SDS011;4748;50.802;7.132;2022-11-15T01:54:46;3.53;;;2.33;;
9418;SDS011;4748;50.802;7.132;2022-11-15T01:57:14;2.30;;;2.20;;
9418;SDS011;4748;50.802;7.132;2022-11-15T01:59:40;4.60;;;2.17;;
9418;SDS011;4748;50.802;7.132;2022-11-15T02:02:08;3.37;;;2.53;;
9418;SDS011;4748;50.802;7.132;2022-11-15T02:04:35;2.40;;;2.23;;
9418;SDS011;4748;50.802;7.132;2022-11-15T02:07:04;6.60;;;2.63;;
9418;SDS011;4748;50.802;7.132;2022-11-15T02:09:31;13.10;;;2.03;;
9418;SDS011;4748;50.802;7.132;2022-11-15T02:11:57;2.00;;;1.80;;
9418;SDS011;4748;50.802;7.132;2022-11-15T02:14:24;3.00;;;1.80;;
9418;SDS011;4748;50.802;7.132;2022-11-15T02:16:56;6.10;;;2.00;;
9418;SDS011;4748;50.802;7.132;2022-11-15T02:24:58;2.50;;;1.90;;
9418;SDS011;4748;50.802;7.132;2022-11-15T02:39:00;2.77;;;1.93;;
9418;SDS011;4748;50.802;7.132;2022-11-15T02:41:40;2.50;;;2.33;;
9418;SDS011;4748;50.802;7.132;2022-11-15T02:44:15;2.50;;;2.30;;
9418;SDS011;4748;50.802;7.132;2022-11-15T02:47:04;3.80;;;2.27;;
9418;SDS011;4748;50.802;7.132;2022-11-15T02:49:39;2.23;;;1.93;;
9418;SDS011;4748;50.802;7.132;2022-11-15T02:52:25;2.70;;;2.50;;
9418;SDS011;4748;50.802;7.132;2022-11-15T02:54:58;6.37;;;2.50;;
9418;SDS011;4748;50.802;7.132;2022-11-15T02:57:44;4.67;;;2.03;;
9418;SDS011;4748;50.802;7.132;2022-11-15T03:00:17;3.00;;;2.10;;
9418;SDS011;4748;50.802;7.132;2022-11-15T03:02:56;6.30;;;2.10;;
9418;SDS011;4748;50.802;7.132;2022-11-15T03:08:26;1.90;;;1.70;;
9418;SDS011;4748;50.802;7.132;2022-11-15T03:11:11;2.53;;;1.67;;
9418;SDS011;4748;50.802;7.132;2022-11-15T03:16:27;2.37;;;2.00;;
9418;SDS011;4748;50.802;7.132;2022-11-15T03:21:39;3.03;;;2.00;;
9418;SDS011;4748;50.802;7.132;2022-11-15T03:24:06;6.67;;;1.70;;
9418;SDS011;4748;50.802;7.132;2022-11-15T03:26:34;2.97;;;1.97;;
9418;SDS011;4748;50.802;7.132;2022-11-15T03:29:13;3.63;;;1.80;;
9418;SDS011;4748;50.802;7.132;2022-11-15T03:31:44;2.53;;;1.50;;
9418;SDS011;4748;50.802;7.132;2022-11-15T03:34:25;4.77;;;2.30;;
9418;SDS011;4748;50.802;7.132;2022-11-15T03:36:54;2.77;;;2.50;;
9418;SDS011;4748;50.802;7.132;2022-11-15T03:39:20;3.07;;;1.93;;
9418;SDS011;4748;50.802;7.132;2022-11-15T03:49:27;3.60;;;1.80;;
9418;SDS011;4748;50.802;7.132;2022-11-15T03:51:56;3.67;;;2.00;;
9418;SDS011;4748;50.802;7.132;2022-11-15T03:54:23;4.67;;;2.03;;
9418;SDS011;4748;50.802;7.132;2022-11-15T03:56:48;2.00;;;1.80;;
9418;SDS011;4748;50.802;7.132;2022-11-15T03:59:13;1.90;;;1.77;;
9418;SDS011;4748;50.802;7.132;2022-11-15T04:01:39;1.73;;;1.67;;
9418;SDS011;4748;50.802;7.132;2022-11-15T04:04:04;1.83;;;1.57;;
9418;SDS011;4748;50.802;7.132;2022-11-15T04:06:29;5.43;;;1.80;;
9418;SDS011;4748;50.802;7.132;2022-11-15T04:08:55;2.93;;;1.10;;
9418;SDS011;4748;50.802;7.132;2022-11-15T04:11:20;1.43;;;1.43;;
9418;SDS011;4748;50.802;7.132;2022-11-15T04:13:45;4.47;;;1.37;;
9418;SDS011;4748;50.802;7.132;2022-11-15T04:16:11;1.50;;;1.40;;
9418;SDS011;4748;50.802;7.132;2022-11-15T04:18:36;1.63;;;1.53;;
9418;SDS011;4748;50.802;7.132;2022-11-15T04:21:02;1.53;;;1.43;;
9418;SDS011;4748;50.802;7.132;2022-11-15T04:23:46;1.60;;;1.50;;
9418;SDS011;4748;50.802;7.132;2022-11-15T04:26:30;2.23;;;1.50;;
9418;SDS011;4748;50.802;7.132;2022-11-15T04:28:56;1.60;;;1.50;;
9418;SDS011;4748;50.802;7.132;2022-11-15T04:31:40;1.60;;;1.37;;
9418;SDS011;4748;50.802;7.132;2022-11-15T04:34:05;1.53;;;1.43;;
9418;SDS011;4748;50.802;7.132;2022-11-15T04:36:30;1.20;;;1.10;;
9418;SDS011;4748;50.802;7.132;2022-11-15T04:39:14;0.97;;;0.97;;
9418;SDS011;4748;50.802;7.132;2022-11-15T04:41:40;1.37;;;1.23;;
9418;SDS011;4748;50.802;7.132;2022-11-15T04:44:05;2.03;;;0.90;;
9418;SDS011;4748;50.802;7.132;2022-11-15T04:46:30;0.90;;;0.90;;
9418;SDS011;4748;50.802;7.132;2022-11-15T04:48:55;0.93;;;0.93;;
9418;SDS011;4748;50.802;7.132;2022-11-15T04:51:21;1.10;;;1.00;;
9418;SDS011;4748;50.802;7.132;2022-11-15T04:53:46;1.70;;;1.30;;
9418;SDS011;4748;50.802;7.132;2022-11-15T04:56:11;1.60;;;1.23;;
9418;SDS011;4748;50.802;7.132;2022-11-15T04:58:37;1.60;;;1.47;;
9418;SDS011;4748;50.802;7.132;2022-11-15T05:01:06;1.07;;;0.97;;
9418;SDS011;4748;50.802;7.132;2022-11-15T05:03:35;1.47;;;0.97;;
9418;SDS011;4748;50.802;7.132;2022-11-15T05:06:20;0.90;;;0.90;;
9418;SDS011;4748;50.802;7.132;2022-11-15T05:08:45;4.90;;;1.40;;
9418;SDS011;4748;50.802;7.132;2022-11-15T05:11:11;2.63;;;1.10;;
9418;SDS011;4748;50.802;7.132;2022-11-15T05:13:36;1.17;;;1.10;;
9418;SDS011;4748;50.802;7.132;2022-11-15T05:16:01;0.90;;;0.90;;
9418;SDS011;4748;50.802;7.132;2022-11-15T05:18:27;1.13;;;1.13;;
9418;SDS011;4748;50.802;7.132;2022-11-15T05:20:52;0.77;;;0.77;;
9418;SDS011;4748;50.802;7.132;2022-11-15T05:23:17;1.73;;;1.10;;
9418;SDS011;4748;50.802;7.132;2022-11-15T05:25:43;1.00;;;1.00;;
9418;SDS011;4748;50.802;7.132;2022-11-15T05:28:08;0.70;;;0.70;;
9418;SDS011;4748;50.802;7.132;2022-11-15T05:30:33;1.47;;;0.87;;
9418;SDS011;4748;50.802;7.132;2022-11-15T05:32:59;4.63;;;1.00;;
9418;SDS011;4748;50.802;7.132;2022-11-15T05:35:38;0.83;;;0.77;;
9418;SDS011;4748;50.802;7.132;2022-11-15T05:38:06;0.90;;;0.90;;
9418;SDS011;4748;50.802;7.132;2022-11-15T05:40:32;3.17;;;1.03;;
9418;SDS011;4748;50.802;7.132;2022-11-15T05:42:59;5.53;;;1.00;;
9418;SDS011;4748;50.802;7.132;2022-11-15T05:45:27;1.37;;;1.00;;
9418;SDS011;4748;50.802;7.132;2022-11-15T05:47:53;2.03;;;0.50;;
9418;SDS011;4748;50.802;7.132;2022-11-15T05:50:21;0.60;;;0.60;;
9418;SDS011;4748;50.802;7.132;2022-11-15T05:52:46;0.70;;;0.60;;
9418;SDS011;4748;50.802;7.132;2022-11-15T05:55:12;1.17;;;0.53;;
9418;SDS011;4748;50.802;7.132;2022-11-15T05:57:38;2.73;;;0.83;;
9418;SDS011;4748;50.802;7.132;2022-11-15T06:00:04;0.60;;;0.60;;
9418;SDS011;4748;50.802;7.132;2022-11-15T06:02:30;0.77;;;0.73;;
9418;SDS011;4748;50.802;7.132;2022-11-15T06:04:55;3.37;;;1.53;;
9418;SDS011;4748;50.802;7.132;2022-11-15T06:07:20;4.10;;;2.43;;
9418;SDS011;4748;50.802;7.132;2022-11-15T06:09:46;1.13;;;1.10;;
9418;SDS011;4748;50.802;7.132;2022-11-15T06:12:11;1.17;;;0.70;;
9418;SDS011;4748;50.802;7.132;2022-11-15T06:14:37;1.77;;;0.50;;
9418;SDS011;4748;50.802;7.132;2022-11-15T06:17:02;6.30;;;3.47;;
9418;SDS011;4748;50.802;7.132;2022-11-15T06:19:27;4.40;;;2.87;;
9418;SDS011;4748;50.802;7.132;2022-11-15T06:21:57;8.73;;;3.43;;
9418;SDS011;4748;50.802;7.132;2022-11-15T06:24:23;2.20;;;2.00;;
9418;SDS011;4748;50.802;7.132;2022-11-15T06:26:48;7.03;;;3.67;;
9418;SDS011;4748;50.802;7.132;2022-11-15T06:29:13;2.53;;;2.10;;
9418;SDS011;4748;50.802;7.132;2022-11-15T06:31:39;2.37;;;1.13;;
9418;SDS011;4748;50.802;7.132;2022-11-15T06:34:04;1.83;;;1.63;;
9418;SDS011;4748;50.802;7.132;2022-11-15T06:36:29;1.30;;;1.30;;
9418;SDS011;4748;50.802;7.132;2022-11-15T06:38:56;2.43;;;2.23;;
9418;SDS011;4748;50.802;7.132;2022-11-15T06:41:21;6.13;;;1.60;;
9418;SDS011;4748;50.802;7.132;2022-11-15T06:43:46;0.80;;;0.80;;
9418;SDS011;4748;50.802;7.132;2022-11-15T06:46:12;1.43;;;0.80;;
9418;SDS011;4748;50.802;7.132;2022-11-15T06:48:37;1.17;;;1.07;;
9418;SDS011;4748;50.802;7.132;2022-11-15T06:51:03;1.53;;;0.90;;
9418;SDS011;4748;50.802;7.132;2022-11-15T06:53:30;2.40;;;0.83;;
9418;SDS011;4748;50.802;7.132;2022-11-15T06:55:59;2.77;;;0.90;;
9418;SDS011;4748;50.802;7.132;2022-11-15T06:58:26;2.40;;;1.03;;
9418;SDS011;4748;50.802;7.132;2022-11-15T07:00:52;1.70;;;0.93;;
9418;SDS011;4748;50.802;7.132;2022-11-15T07:03:17;4.00;;;0.80;;
9418;SDS011;4748;50.802;7.132;2022-11-15T07:05:50;2.60;;;0.70;;
9418;SDS011;4748;50.802;7.132;2022-11-15T07:08:19;6.97;;;0.70;;
9418;SDS011;4748;50.802;7.132;2022-11-15T07:10:44;0.53;;;0.40;;
9418;SDS011;4748;50.802;7.132;2022-11-15T07:13:09;0.50;;;0.50;;
9418;SDS011;4748;50.802;7.132;2022-11-15T07:15:35;0.40;;;0.40;;
9418;SDS011;4748;50.802;7.132;2022-11-15T07:18:00;1.37;;;0.63;;
9418;SDS011;4748;50.802;7.132;2022-11-15T07:20:26;1.67;;;0.50;;
9418;SDS011;4748;50.802;7.132;2022-11-15T07:22:55;0.83;;;0.70;;
9418;SDS011;4748;50.802;7.132;2022-11-15T07:25:24;0.50;;;0.50;;
9418;SDS011;4748;50.802;7.132;2022-11-15T07:27:56;1.57;;;0.40;;
9418;SDS011;4748;50.802;7.132;2022-11-15T07:30:23;0.50;;;0.50;;
9418;SDS011;4748;50.802;7.132;2022-11-15T07:33:07;0.50;;;0.30;;
9418;SDS011;4748;50.802;7.132;2022-11-15T07:35:32;0.33;;;0.33;;
9418;SDS011;4748;50.802;7.132;2022-11-15T07:37:58;0.40;;;0.40;;
9418;SDS011;4748;50.802;7.132;2022-11-15T07:40:25;0.70;;;0.40;;
9418;SDS011;4748;50.802;7.132;2022-11-15T07:42:58;0.93;;;0.40;;
9418;SDS011;4748;50.802;7.132;2022-11-15T07:45:26;0.50;;;0.50;;
9418;SDS011;4748;50.802;7.132;2022-11-15T07:47:52;0.30;;;0.30;;
9418;SDS011;4748;50.802;7.132;2022-11-15T07:50:18;0.30;;;0.30;;
9418;SDS011;4748;50.802;7.132;2022-11-15T07:52:44;0.50;;;0.50;;
9418;SDS011;4748;50.802;7.132;2022-11-15T07:55:10;0.80;;;0.30;;
9418;SDS011;4748;50.802;7.132;2022-11-15T07:57:35;0.83;;;0.40;;
9418;SDS011;4748;50.802;7.132;2022-11-15T08:00:01;1.83;;;0.40;;
9418;SDS011;4748;50.802;7.132;2022-11-15T08:02:28;0.50;;;0.50;;
9418;SDS011;4748;50.802;7.132;2022-11-15T08:04:53;0.30;;;0.30;;
9418;SDS011;4748;50.802;7.132;2022-11-15T08:07:19;1.80;;;0.57;;
9418;SDS011;4748;50.802;7.132;2022-11-15T08:09:44;2.13;;;0.30;;
9418;SDS011;4748;50.802;7.132;2022-11-15T08:12:09;0.67;;;0.30;;
9418;SDS011;4748;50.802;7.132;2022-11-15T08:14:35;0.67;;;0.30;;
9418;SDS011;4748;50.802;7.132;2022-11-15T08:17:00;1.83;;;0.50;;
9418;SDS011;4748;50.802;7.132;2022-11-15T08:19:26;4.23;;;0.70;;
9418;SDS011;4748;50.802;7.132;2022-11-15T08:21:52;0.30;;;0.30;;
9418;SDS011;4748;50.802;7.132;2022-11-15T08:24:17;0.93;;;0.43;;
9418;SDS011;4748;50.802;7.132;2022-11-15T08:26:42;0.53;;;0.53;;
9418;SDS011;4748;50.802;7.132;2022-11-15T08:29:07;3.93;;;0.50;;
9418;SDS011;4748;50.802;7.132;2022-11-15T08:31:34;0.30;;;0.30;;
9418;SDS011;4748;50.802;7.132;2022-11-15T08:34:01;0.50;;;0.50;;
9418;SDS011;4748;50.802;7.132;2022-11-15T08:36:27;1.47;;;0.40;;
9418;SDS011;4748;50.802;7.132;2022-11-15T08:38:52;0.30;;;0.30;;
9418;SDS011;4748;50.802;7.132;2022-11-15T08:41:24;0.83;;;0.60;;
9418;SDS011;4748;50.802;7.132;2022-11-15T08:43:50;0.60;;;0.30;;
9418;SDS011;4748;50.802;7.132;2022-11-15T08:46:16;1.73;;;0.93;;
9418;SDS011;4748;50.802;7.132;2022-11-15T08:48:43;0.70;;;0.70;;
9418;SDS011;4748;50.802;7.132;2022-11-15T08:51:08;0.93;;;0.40;;
9418;SDS011;4748;50.802;7.132;2022-11-15T08:53:34;2.93;;;0.53;;
9418;SDS011;4748;50.802;7.132;2022-11-15T08:55:59;0.40;;;0.40;;
9418;SDS011;4748;50.802;7.132;2022-11-15T08:58:25;0.50;;;0.50;;
9418;SDS011;4748;50.802;7.132;2022-11-15T09:00:50;1.00;;;1.00;;
9418;SDS011;4748;50.802;7.132;2022-11-15T09:03:16;0.30;;;0.30;;
9418;SDS011;4748;50.802;7.132;2022-11-15T09:05:41;0.63;;;0.40;;
9418;SDS011;4748;50.802;7.132;2022-11-15T09:08:06;0.70;;;0.43;;
9418;SDS011;4748;50.802;7.132;2022-11-15T09:10:32;0.57;;;0.50;;
9418;SDS011;4748;50.802;7.132;2022-11-15T09:12:57;0.50;;;0.50;;
9418;SDS011;4748;50.802;7.132;2022-11-15T09:15:22;0.53;;;0.53;;
9418;SDS011;4748;50.802;7.132;2022-11-15T09:17:48;0.40;;;0.40;;
9418;SDS011;4748;50.802;7.132;2022-11-15T09:20:13;0.30;;;0.30;;
9418;SDS011;4748;50.802;7.132;2022-11-15T09:22:39;0.20;;;0.20;;
9418;SDS011;4748;50.802;7.132;2022-11-15T09:25:05;1.37;;;0.50;;
9418;SDS011;4748;50.802;7.132;2022-11-15T09:27:31;0.30;;;0.30;;
9418;SDS011;4748;50.802;7.132;2022-11-15T09:29:57;0.60;;;0.60;;
9418;SDS011;4748;50.802;7.132;2022-11-15T09:32:23;0.40;;;0.30;;
9418;SDS011;4748;50.802;7.132;2022-11-15T09:34:51;0.27;;;0.27;;
9418;SDS011;4748;50.802;7.132;2022-11-15T09:37:17;2.53;;;0.40;;
9418;SDS011;4748;50.802;7.132;2022-11-15T09:39:42;0.60;;;0.40;;
9418;SDS011;4748;50.802;7.132;2022-11-15T09:45:10;3.53;;;0.40;;
9418;SDS011;4748;50.802;7.132;2022-11-15T09:50:50;0.20;;;0.20;;
9418;SDS011;4748;50.802;7.132;2022-11-15T09:55:58;0.30;;;0.30;;
9418;SDS011;4748;50.802;7.132;2022-11-15T10:04:16;4.27;;;0.33;;
9418;SDS011;4748;50.802;7.132;2022-11-15T10:06:45;0.30;;;0.30;;
9418;SDS011;4748;50.802;7.132;2022-11-15T10:09:23;1.40;;;0.20;;
9418;SDS011;4748;50.802;7.132;2022-11-15T10:11:54;0.20;;;0.20;;
9418;SDS011;4748;50.802;7.132;2022-11-15T10:14:20;0.10;;;0.10;;
9418;SDS011;4748;50.802;7.132;2022-11-15T10:27:33;0.67;;;0.33;;
9418;SDS011;4748;50.802;7.132;2022-11-15T10:29:58;0.10;;;0.10;;
9418;SDS011;4748;50.802;7.132;2022-11-15T10:32:24;0.20;;;0.10;;
9418;SDS011;4748;50.802;7.132;2022-11-15T10:34:50;0.20;;;0.20;;
9418;SDS011;4748;50.802;7.132;2022-11-15T10:37:29;0.20;;;0.10;;
9418;SDS011;4748;50.802;7.132;2022-11-15T10:40:06;1.60;;;0.20;;
9418;SDS011;4748;50.802;7.132;2022-11-15T10:42:40;0.63;;;0.10;;
9418;SDS011;4748;50.802;7.132;2022-11-15T10:45:39;0.10;;;0.10;;
9418;SDS011;4748;50.802;7.132;2022-11-15T10:50:36;2.73;;;0.20;;
9418;SDS011;4748;50.802;7.132;2022-11-15T10:53:03;0.40;;;0.20;;
9418;SDS011;4748;50.802;7.132;2022-11-15T10:55:39;0.20;;;0.00;;
9418;SDS011;4748;50.802;7.132;2022-11-15T10:58:19;2.47;;;0.13;;
9418;SDS011;4748;50.802;7.132;2022-11-15T11:00:45;0.00;;;0.00;;
9418;SDS011;4748;50.802;7.132;2022-11-15T11:06:03;1.23;;;0.03;;
9418;SDS011;4748;50.802;7.132;2022-11-15T11:08:30;0.00;;;0.00;;
9418;SDS011;4748;50.802;7.132;2022-11-15T11:10:57;0.10;;;0.10;;
9418;SDS011;4748;50.802;7.132;2022-11-15T11:27:04;0.87;;;0.20;;
9418;SDS011;4748;50.802;7.132;2022-11-15T11:30:02;1.10;;;0.17;;
9418;SDS011;4748;50.802;7.132;2022-11-15T11:33:00;1.47;;;0.10;;
9418;SDS011;4748;50.802;7.132;2022-11-15T11:47:11;0.10;;;0.10;;
9418;SDS011;4748;50.802;7.132;2022-11-15T11:52:25;2.40;;;0.20;;
9418;SDS011;4748;50.802;7.132;2022-11-15T11:55:23;0.20;;;0.20;;
9418;SDS011;4748;50.802;7.132;2022-11-15T11:58:00;0.73;;;0.10;;
9418;SDS011;4748;50.802;7.132;2022-11-15T12:00:31;0.60;;;0.30;;
9418;SDS011;4748;50.802;7.132;2022-11-15T12:05:37;0.50;;;0.20;;
9418;SDS011;4748;50.802;7.132;2022-11-15T12:11:07;0.20;;;0.20;;
9418;SDS011;4748;50.802;7.132;2022-11-15T12:13:38;0.30;;;0.10;;
9418;SDS011;4748;50.802;7.132;2022-11-15T12:16:07;0.43;;;0.20;;
9418;SDS011;4748;50.802;7.132;2022-11-15T12:18:46;0.40;;;0.40;;
9418;SDS011;4748;50.802;7.132;2022-11-15T12:23:58;0.13;;;0.13;;
9418;SDS011;4748;50.802;7.132;2022-11-15T12:26:32;0.20;;;0.20;;
9418;SDS011;4748;50.802;7.132;2022-11-15T12:29:03;0.10;;;0.10;;
9418;SDS011;4748;50.802;7.132;2022-11-15T12:31:44;1.13;;;0.27;;
9418;SDS011;4748;50.802;7.132;2022-11-15T12:36:44;3.20;;;0.30;;
9418;SDS011;4748;50.802;7.132;2022-11-15T12:39:11;0.20;;;0.20;;
9418;SDS011;4748;50.802;7.132;2022-11-15T12:41:38;0.30;;;0.30;;
9418;SDS011;4748;50.802;7.132;2022-11-15T12:44:13;0.27;;;0.10;;
9418;SDS011;4748;50.802;7.132;2022-11-15T13:05:51;0.40;;;0.40;;
9418;SDS011;4748;50.802;7.132;2022-11-15T13:07:59;0.33;;;0.30;;
9418;SDS011;4748;50.802;7.132;2022-11-15T13:12:51;1.70;;;0.40;;
9418;SDS011;4748;50.802;7.132;2022-11-15T13:18:35;2.30;;;0.20;;
9418;SDS011;4748;50.802;7.132;2022-11-15T13:21:03;4.00;;;0.40;;
9418;SDS011;4748;50.802;7.132;2022-11-15T13:23:54;2.40;;;0.50;;
9418;SDS011;4748;50.802;7.132;2022-11-15T13:26:20;6.43;;;1.20;;
9418;SDS011;4748;50.802;7.132;2022-11-15T13:28:47;0.97;;;0.50;;
9418;SDS011;4748;50.802;7.132;2022-11-15T13:31:30;1.40;;;0.57;;
9418;SDS011;4748;50.802;7.132;2022-11-15T13:34:03;0.97;;;0.60;;
9418;SDS011;4748;50.802;7.132;2022-11-15T13:36:42;0.37;;;0.37;;
9418;SDS011;4748;50.802;7.132;2022-11-15T13:39:14;0.20;;;0.20;;
9418;SDS011;4748;50.802;7.132;2022-11-15T13:41:51;0.30;;;0.30;;
9418;SDS011;4748;50.802;7.132;2022-11-15T13:44:27;2.80;;;0.30;;
9418;SDS011;4748;50.802;7.132;2022-11-15T13:47:04;1.40;;;0.30;;
9418;SDS011;4748;50.802;7.132;2022-11-15T13:49:31;0.20;;;0.20;;
9418;SDS011;4748;50.802;7.132;2022-11-15T13:51:58;5.30;;;0.40;;
9418;SDS011;4748;50.802;7.132;2022-11-15T13:54:28;0.93;;;0.30;;
9418;SDS011;4748;50.802;7.132;2022-11-15T13:56:59;0.43;;;0.43;;
9418;SDS011;4748;50.802;7.132;2022-11-15T14:01:55;0.30;;;0.30;;
9418;SDS011;4748;50.802;7.132;2022-11-15T14:04:27;0.30;;;0.30;;
9418;SDS011;4748;50.802;7.132;2022-11-15T14:06:56;2.43;;;0.20;;
9418;SDS011;4748;50.802;7.132;2022-11-15T14:11:58;2.20;;;0.50;;
9418;SDS011;4748;50.802;7.132;2022-11-15T14:14:25;0.30;;;0.30;;
9418;SDS011;4748;50.802;7.132;2022-11-15T14:16:53;2.73;;;0.40;;
9418;SDS011;4748;50.802;7.132;2022-11-15T14:24:42;2.43;;;0.53;;
9418;SDS011;4748;50.802;7.132;2022-11-15T14:27:43;0.10;;;0.10;;
9418;SDS011;4748;50.802;7.132;2022-11-15T14:30:01;0.30;;;0.30;;
9418;SDS011;4748;50.802;7.132;2022-11-15T14:32:28;1.60;;;0.37;;
9418;SDS011;4748;50.802;7.132;2022-11-15T14:34:56;1.37;;;0.23;;
9418;SDS011;4748;50.802;7.132;2022-11-15T14:37:26;1.03;;;0.30;;
9418;SDS011;4748;50.802;7.132;2022-11-15T14:39:54;1.90;;;0.20;;
9418;SDS011;4748;50.802;7.132;2022-11-15T14:42:20;0.30;;;0.30;;
9418;SDS011;4748;50.802;7.132;2022-11-15T14:44:47;0.20;;;0.20;;
9418;SDS011;4748;50.802;7.132;2022-11-15T14:47:12;1.70;;;0.40;;
9418;SDS011;4748;50.802;7.132;2022-11-15T14:49:38;1.90;;;0.30;;
9418;SDS011;4748;50.802;7.132;2022-11-15T14:52:16;2.27;;;0.20;;
9418;SDS011;4748;50.802;7.132;2022-11-15T14:54:49;6.50;;;0.43;;
9418;SDS011;4748;50.802;7.132;2022-11-15T14:57:14;4.47;;;0.40;;
9418;SDS011;4748;50.802;7.132;2022-11-15T14:59:40;0.73;;;0.40;;
9418;SDS011;4748;50.802;7.132;2022-11-15T15:02:14;1.60;;;0.73;;
9418;SDS011;4748;50.802;7.132;2022-11-15T15:04:43;0.13;;;0.13;;
9418;SDS011;4748;50.802;7.132;2022-11-15T15:07:08;0.50;;;0.40;;
9418;SDS011;4748;50.802;7.132;2022-11-15T15:09:33;3.73;;;0.40;;
9418;SDS011;4748;50.802;7.132;2022-11-15T15:11:59;0.37;;;0.20;;
9418;SDS011;4748;50.802;7.132;2022-11-15T15:14:24;0.57;;;0.40;;
9418;SDS011;4748;50.802;7.132;2022-11-15T15:16:49;0.30;;;0.30;;
9418;SDS011;4748;50.802;7.132;2022-11-15T15:19:15;0.40;;;0.30;;
9418;SDS011;4748;50.802;7.132;2022-11-15T15:21:40;0.60;;;0.20;;
9418;SDS011;4748;50.802;7.132;2022-11-15T15:24:05;0.40;;;0.20;;
9418;SDS011;4748;50.802;7.132;2022-11-15T15:26:31;0.40;;;0.30;;
9418;SDS011;4748;50.802;7.132;2022-11-15T15:29:01;0.83;;;0.60;;
9418;SDS011;4748;50.802;7.132;2022-11-15T15:31:26;0.30;;;0.30;;
9418;SDS011;4748;50.802;7.132;2022-11-15T15:33:52;1.50;;;0.80;;
9418;SDS011;4748;50.802;7.132;2022-11-15T15:36:18;0.60;;;0.30;;
9418;SDS011;4748;50.802;7.132;2022-11-15T15:38:44;2.53;;;0.47;;
9418;SDS011;4748;50.802;7.132;2022-11-15T15:41:11;1.43;;;0.70;;
9418;SDS011;4748;50.802;7.132;2022-11-15T15:43:37;0.83;;;0.30;;
9418;SDS011;4748;50.802;7.132;2022-11-15T15:46:03;0.80;;;0.60;;
9418;SDS011;4748;50.802;7.132;2022-11-15T15:48:28;0.70;;;0.30;;
9418;SDS011;4748;50.802;7.132;2022-11-15T15:50:53;0.40;;;0.40;;
9418;SDS011;4748;50.802;7.132;2022-11-15T15:53:19;0.40;;;0.40;;
9418;SDS011;4748;50.802;7.132;2022-11-15T15:55:44;0.53;;;0.53;;
9418;SDS011;4748;50.802;7.132;2022-11-15T15:58:10;0.40;;;0.40;;
9418;SDS011;4748;50.802;7.132;2022-11-15T16:00:35;0.30;;;0.30;;
9418;SDS011;4748;50.802;7.132;2022-11-15T16:03:01;5.20;;;0.37;;
9418;SDS011;4748;50.802;7.132;2022-11-15T16:05:27;0.33;;;0.23;;
9418;SDS011;4748;50.802;7.132;2022-11-15T16:07:53;0.83;;;0.47;;
9418;SDS011;4748;50.802;7.132;2022-11-15T16:10:20;0.63;;;0.50;;
9418;SDS011;4748;50.802;7.132;2022-11-15T16:12:50;1.07;;;0.70;;
9418;SDS011;4748;50.802;7.132;2022-11-15T16:15:16;1.70;;;0.30;;
9418;SDS011;4748;50.802;7.132;2022-11-15T16:20:32;0.30;;;0.30;;
9418;SDS011;4748;50.802;7.132;2022-11-15T16:23:01;2.43;;;0.70;;
9418;SDS011;4748;50.802;7.132;2022-11-15T16:25:28;0.60;;;0.60;;
9418;SDS011;4748;50.802;7.132;2022-11-15T16:27:53;5.30;;;0.60;;
9418;SDS011;4748;50.802;7.132;2022-11-15T16:30:20;1.70;;;0.30;;
9418;SDS011;4748;50.802;7.132;2022-11-15T16:32:46;0.40;;;0.40;;
9418;SDS011;4748;50.802;7.132;2022-11-15T16:35:13;0.23;;;0.23;;
9418;SDS011;4748;50.802;7.132;2022-11-15T16:37:39;0.67;;;0.60;;
9418;SDS011;4748;50.802;7.132;2022-11-15T16:40:28;1.73;;;0.50;;
9418;SDS011;4748;50.802;7.132;2022-11-15T16:42:56;0.40;;;0.40;;
9418;SDS011;4748;50.802;7.132;2022-11-15T16:45:22;0.63;;;0.40;;
9418;SDS011;4748;50.802;7.132;2022-11-15T16:47:48;0.30;;;0.30;;
9418;SDS011;4748;50.802;7.132;2022-11-15T16:53:10;0.53;;;0.53;;
9418;SDS011;4748;50.802;7.132;2022-11-15T16:55:35;0.30;;;0.30;;
9418;SDS011;4748;50.802;7.132;2022-11-15T16:58:00;0.57;;;0.50;;
9418;SDS011;4748;50.802;7.132;2022-11-15T17:00:26;0.83;;;0.83;;
9418;SDS011;4748;50.802;7.132;2022-11-15T17:02:51;0.60;;;0.60;;
9418;SDS011;4748;50.802;7.132;2022-11-15T17:05:18;0.60;;;0.60;;
9418;SDS011;4748;50.802;7.132;2022-11-15T17:07:49;0.27;;;0.27;;
9418;SDS011;4748;50.802;7.132;2022-11-15T17:10:18;0.40;;;0.40;;
9418;SDS011;4748;50.802;7.132;2022-11-15T17:12:45;0.40;;;0.40;;
9418;SDS011;4748;50.802;7.132;2022-11-15T17:15:11;1.43;;;0.47;;
9418;SDS011;4748;50.802;7.132;2022-11-15T17:17:38;1.20;;;0.37;;
9418;SDS011;4748;50.802;7.132;2022-11-15T17:20:04;0.73;;;0.30;;
9418;SDS011;4748;50.802;7.132;2022-11-15T17:22:34;0.40;;;0.40;;
9418;SDS011;4748;50.802;7.132;2022-11-15T17:25:05;0.87;;;0.43;;
9418;SDS011;4748;50.802;7.132;2022-11-15T17:27:31;0.60;;;0.60;;
9418;SDS011;4748;50.802;7.132;2022-11-15T17:29:56;0.47;;;0.47;;
9418;SDS011;4748;50.802;7.132;2022-11-15T17:32:21;0.40;;;0.40;;
9418;SDS011;4748;50.802;7.132;2022-11-15T17:34:47;0.37;;;0.37;;
9418;SDS011;4748;50.802;7.132;2022-11-15T17:37:13;8.70;;;0.53;;
9418;SDS011;4748;50.802;7.132;2022-11-15T17:39:38;0.50;;;0.40;;
9418;SDS011;4748;50.802;7.132;2022-11-15T17:42:03;1.50;;;0.30;;
9418;SDS011;4748;50.802;7.132;2022-11-15T17:44:29;0.57;;;0.57;;
9418;SDS011;4748;50.802;7.132;2022-11-15T17:46:55;0.83;;;0.60;;
9418;SDS011;4748;50.802;7.132;2022-11-15T17:49:20;0.47;;;0.30;;